Time;durP1;ratioP1;P1;durP2;ratioP2;P2;SDS_P1;SDS_P2;PMS_P1;PMS_P2;Temp;Humidity;BMP_temperature;BMP_pressure;BME280_temperature;BME280_humidity;BME280_pressure;Samples;Min_cycle;Max_cycle;Signal;HPM_P1;HPM_P2
2023/07/27 00:00:16;;;;;;;7.10;3.47;;;16.10;1.00;;;;;;5017781;28;20200;-78
2023/07/27 00:02:41;;;;;;;4.03;3.17;;;16.10;1.00;;;;;;5018085;28;20192;-79
2023/07/27 00:05:07;;;;;;;7.53;3.50;;;16.10;1.00;;;;;;5017315;28;20169;-78
2023/07/27 00:07:33;;;;;;;6.47;3.30;;;16.10;1.00;;;;;;5018247;28;20177;-79
2023/07/27 00:09:58;;;;;;;6.83;3.20;;;16.10;1.00;;;;;;5016478;28;20756;-78
2023/07/27 00:12:24;;;;;;;5.73;3.50;;;16.10;99.90;;;;;;5016335;28;20272;-79
2023/07/27 00:14:49;;;;;;;6.83;3.63;;;16.10;1.00;;;;;;5017639;28;20332;-79
2023/07/27 00:17:16;;;;;;;4.80;3.03;;;16.10;1.00;;;;;;5016387;28;20185;-77
2023/07/27 00:19:41;;;;;;;7.87;3.17;;;16.30;99.90;;;;;;5017436;28;20227;-78
2023/07/27 00:22:07;;;;;;;4.17;3.10;;;16.20;99.90;;;;;;5016019;28;20728;-79
2023/07/27 00:24:32;;;;;;;6.93;3.30;;;16.20;1.00;;;;;;5015541;28;20189;-78
2023/07/27 00:26:58;;;;;;;6.23;3.30;;;16.10;99.90;;;;;;5017763;28;20243;-78
2023/07/27 00:29:23;;;;;;;4.50;3.37;;;16.10;1.00;;;;;;5015701;28;20651;-79
2023/07/27 00:31:50;;;;;;;5.07;3.67;;;16.10;65.50;;;;;;5015650;28;20213;-78
2023/07/27 00:34:16;;;;;;;4.73;2.77;;;16.10;99.90;;;;;;5015754;28;20258;-79
2023/07/27 00:36:41;;;;;;;6.17;3.17;;;16.10;32.80;;;;;;5015666;28;20173;-79
2023/07/27 00:39:07;;;;;;;6.97;3.30;;;16.10;99.90;;;;;;5015337;28;20550;-78
2023/07/27 00:41:32;;;;;;;3.20;2.90;;;16.10;22.30;;;;;;5016003;28;20602;-79
2023/07/27 00:43:58;;;;;;;6.07;3.30;;;16.10;1.00;;;;;;5017220;28;20697;-79
2023/07/27 00:46:23;;;;;;;6.17;3.43;;;16.10;89.10;;;;;;5018366;28;20239;-79
2023/07/27 00:48:49;;;;;;;5.07;2.93;;;16.10;99.90;;;;;;5017899;28;20707;-79
2023/07/27 00:51:15;;;;;;;3.57;3.03;;;16.00;99.90;;;;;;5017816;28;20220;-79
2023/07/27 00:53:40;;;;;;;6.27;2.93;;;16.10;1.00;;;;;;5016094;28;20173;-79
2023/07/27 00:56:06;;;;;;;4.93;3.03;;;16.10;1.00;;;;;;5014715;28;20525;-79
2023/07/27 00:58:32;;;;;;;5.90;3.30;;;16.10;1.00;;;;;;5015933;28;20192;-79
2023/07/27 01:01:01;;;;;;;3.40;2.90;;;16.10;99.90;;;;;;5015218;28;20197;-79
2023/07/27 01:03:27;;;;;;;5.07;3.20;;;16.20;99.90;;;;;;5017216;28;20176;-79
2023/07/27 01:05:54;;;;;;;5.33;3.20;;;16.10;99.90;;;;;;5017024;28;20183;-79
2023/07/27 01:08:19;;;;;;;5.17;3.43;;;16.20;99.90;;;;;;5015393;28;20177;-79
2023/07/27 01:10:52;;;;;;;6.67;3.67;;;16.10;99.90;;;;;;5015788;28;20295;-78
2023/07/27 01:13:39;;;;;;;9.53;4.27;;;16.10;1.00;;;;;;5002953;28;20185;-79
2023/07/27 01:16:14;;;;;;;5.67;2.53;;;16.20;1.00;;;;;;5016388;28;20503;-79
2023/07/27 01:19:01;;;;;;;7.87;3.30;;;16.20;1.00;;;;;;5016497;28;20535;-79
2023/07/27 01:21:33;;;;;;;6.50;2.60;;;16.10;1.00;;;;;;5016101;28;20193;-79
2023/07/27 01:24:27;;;;;;;6.07;3.00;;;16.20;1.00;;;;;;5015100;28;20169;-79
2023/07/27 01:27:01;;;;;;;3.10;2.47;;;16.20;1.00;;;;;;5016102;28;20692;-79
2023/07/27 01:29:53;;;;;;;3.80;2.80;;;16.20;99.90;;;;;;5014744;28;20162;-79
2023/07/27 01:32:22;;;;;;;4.50;2.83;;;16.20;1.00;;;;;;5015012;28;20539;-78
2023/07/27 01:34:54;;;;;;;4.57;2.50;;;16.10;1.00;;;;;;5014518;28;20196;-79
2023/07/27 01:37:21;;;;;;;4.27;2.80;;;16.20;1.00;;;;;;5014551;28;20626;-79
2023/07/27 01:39:50;;;;;;;5.33;2.50;;;16.20;99.90;;;;;;5014293;28;20566;-78
2023/07/27 01:42:16;;;;;;;4.17;2.80;;;16.20;99.90;;;;;;5014026;28;20339;-79
2023/07/27 01:44:42;;;;;;;4.27;2.80;;;16.20;99.90;;;;;;5013862;28;20189;-78
2023/07/27 01:47:08;;;;;;;4.70;2.57;;;16.30;1.00;;;;;;5014122;28;20168;-79
2023/07/27 01:49:36;;;;;;;6.37;3.03;;;16.10;1.00;;;;;;5014220;28;20267;-79
2023/07/27 01:52:04;;;;;;;6.27;2.97;;;16.20;1.00;;;;;;5014315;28;20211;-79
2023/07/27 01:54:30;;;;;;;4.20;2.80;;;16.30;97.30;;;;;;5014883;28;20180;-79
2023/07/27 01:56:57;;;;;;;6.37;3.10;;;16.30;99.90;;;;;;5015923;28;20251;-79
2023/07/27 01:59:24;;;;;;;4.57;2.80;;;16.30;99.90;;;;;;5014951;28;20542;-79
2023/07/27 02:01:51;;;;;;;8.70;3.10;;;16.30;1.00;;;;;;5014352;28;20616;-78
2023/07/27 02:04:16;;;;;;;5.13;2.47;;;16.30;99.90;;;;;;5015563;28;20169;-78
2023/07/27 02:06:43;;;;;;;4.53;2.97;;;16.30;99.90;;;;;;5013752;28;20180;-79
2023/07/27 02:09:08;;;;;;;6.33;2.83;;;16.30;1.00;;;;;;5014401;28;20208;-78
2023/07/27 02:11:34;;;;;;;5.97;2.70;;;16.30;1.00;;;;;;5015119;28;20208;-78
2023/07/27 02:14:11;;;;;;;3.90;2.77;;;16.20;42.20;;;;;;5013694;28;20267;-78
2023/07/27 02:16:49;;;;;;;6.50;3.13;;;16.10;99.90;;;;;;5013486;28;20217;-79
2023/07/27 02:19:16;;;;;;;5.90;2.80;;;16.10;99.90;;;;;;5015112;28;20184;-78
2023/07/27 02:21:44;;;;;;;6.70;2.60;;;16.10;99.90;;;;;;5014773;28;20696;-79
2023/07/27 02:24:10;;;;;;;4.40;3.03;;;16.00;99.90;;;;;;5013516;28;20597;-79
2023/07/27 02:26:36;;;;;;;4.93;2.93;;;16.00;99.90;;;;;;5013763;28;20169;-78
2023/07/27 02:29:02;;;;;;;5.30;2.77;;;16.00;99.90;;;;;;5015608;28;20211;-79
2023/07/27 02:31:27;;;;;;;4.57;3.30;;;16.00;99.90;;;;;;5016708;28;20217;-78
2023/07/27 02:33:53;;;;;;;3.90;2.70;;;16.00;99.90;;;;;;5019151;28;20188;-79
2023/07/27 02:36:18;;;;;;;4.67;3.40;;;15.90;99.90;;;;;;5024653;28;20185;-78
2023/07/27 02:38:44;;;;;;;4.10;3.13;;;15.90;99.90;;;;;;5032675;28;20169;-78
2023/07/27 02:41:10;;;;;;;5.93;3.20;;;15.90;99.90;;;;;;5018449;28;20200;-79
2023/07/27 02:43:36;;;;;;;5.37;3.00;;;15.80;99.90;;;;;;5012705;28;20200;-79
2023/07/27 02:46:04;;;;;;;5.20;3.03;;;15.70;99.90;;;;;;5014677;28;20247;-78
2023/07/27 02:48:29;;;;;;;5.73;3.30;;;15.70;99.90;;;;;;5014727;28;20173;-79
2023/07/27 02:50:55;;;;;;;4.53;3.03;;;15.70;99.90;;;;;;5014821;28;20195;-79
2023/07/27 02:53:21;;;;;;;10.47;2.87;;;15.70;99.90;;;;;;5014787;28;20178;-79
2023/07/27 02:56:00;;;;;;;3.97;3.47;;;15.70;99.90;;;;;;5013623;28;20267;-79
2023/07/27 02:58:26;;;;;;;6.50;3.43;;;15.60;99.90;;;;;;5013221;28;20161;-80
2023/07/27 03:01:00;;;;;;;7.77;3.37;;;15.60;99.90;;;;;;5013603;28;20276;-79
2023/07/27 03:03:26;;;;;;;12.70;4.63;;;15.70;99.90;;;;;;5013304;28;20345;-80
2023/07/27 03:05:59;;;;;;;4.83;3.43;;;15.60;99.90;;;;;;5013097;28;20201;-79
2023/07/27 03:08:28;;;;;;;7.03;3.10;;;15.60;99.90;;;;;;5014566;28;20169;-80
2023/07/27 03:10:54;;;;;;;5.50;3.87;;;15.60;99.90;;;;;;5012999;28;20289;-79
2023/07/27 03:13:20;;;;;;;7.57;3.17;;;15.60;99.90;;;;;;5016232;28;20196;-79
2023/07/27 03:15:46;;;;;;;5.93;3.53;;;15.60;99.90;;;;;;5016927;28;20165;-80
2023/07/27 03:18:12;;;;;;;5.53;3.57;;;15.50;99.90;;;;;;5012439;28;20215;-79
2023/07/27 03:20:42;;;;;;;5.33;3.50;;;15.50;99.90;;;;;;5012965;28;20203;-79
2023/07/27 03:23:08;;;;;;;7.10;3.93;;;15.50;99.90;;;;;;5014347;28;20691;-79
2023/07/27 03:25:35;;;;;;;7.30;3.50;;;15.50;99.90;;;;;;5014349;28;20177;-80
2023/07/27 03:28:02;;;;;;;5.23;3.37;;;15.50;99.90;;;;;;5013120;28;20253;-79
2023/07/27 03:30:28;;;;;;;5.87;3.57;;;15.40;99.90;;;;;;5014291;28;20562;-80
2023/07/27 03:32:54;;;;;;;5.30;3.97;;;15.40;99.90;;;;;;5012891;28;20177;-79
2023/07/27 03:35:19;;;;;;;6.27;3.30;;;15.40;99.90;;;;;;5011794;28;20205;-80
2023/07/27 03:37:45;;;;;;;4.97;3.47;;;15.40;99.90;;;;;;5015403;28;20189;-80
2023/07/27 03:40:10;;;;;;;6.37;4.10;;;15.40;99.90;;;;;;5015141;28;20200;-79
2023/07/27 03:42:36;;;;;;;5.53;4.00;;;15.40;99.90;;;;;;5014888;28;20255;-79
2023/07/27 03:45:02;;;;;;;9.17;4.33;;;15.30;99.90;;;;;;5012696;28;20185;-80
2023/07/27 03:47:27;;;;;;;6.57;3.63;;;15.30;99.90;;;;;;5014720;28;20219;-80
2023/07/27 03:49:53;;;;;;;6.97;3.43;;;15.30;99.90;;;;;;5014489;28;20227;-80
2023/07/27 03:52:18;;;;;;;8.97;3.90;;;15.30;99.90;;;;;;5014703;28;20550;-80
2023/07/27 03:54:44;;;;;;;5.83;3.67;;;15.30;99.90;;;;;;5013370;28;20582;-80
2023/07/27 03:57:09;;;;;;;5.57;3.50;;;15.30;99.90;;;;;;5014643;28;20181;-80
2023/07/27 03:59:35;;;;;;;4.90;3.80;;;15.30;99.90;;;;;;5012997;28;20220;-80
2023/07/27 04:02:01;;;;;;;6.10;3.90;;;15.30;99.90;;;;;;5012747;28;20192;-80
2023/07/27 04:04:26;;;;;;;7.23;3.50;;;15.30;99.90;;;;;;5012815;28;20203;-80
2023/07/27 04:06:52;;;;;;;7.20;4.10;;;15.30;99.90;;;;;;5014634;28;20177;-80
2023/07/27 04:09:17;;;;;;;6.57;3.93;;;15.30;99.90;;;;;;5014618;28;20223;-80
2023/07/27 04:11:43;;;;;;;7.67;3.90;;;15.30;99.90;;;;;;5013098;28;20297;-80
2023/07/27 04:14:08;;;;;;;5.73;3.93;;;15.30;99.90;;;;;;5014775;28;20635;-79
2023/07/27 04:16:34;;;;;;;7.77;4.30;;;15.30;99.90;;;;;;5012713;28;20185;-80
2023/07/27 04:18:59;;;;;;;8.53;4.10;;;15.20;99.90;;;;;;5014184;28;20645;-80
2023/07/27 04:21:25;;;;;;;9.17;4.37;;;15.20;99.90;;;;;;5015094;28;20193;-79
2023/07/27 04:23:50;;;;;;;7.93;4.00;;;15.20;99.90;;;;;;5013091;28;20169;-79
2023/07/27 04:26:16;;;;;;;8.70;4.30;;;15.20;99.90;;;;;;5014713;28;20173;-79
2023/07/27 04:28:41;;;;;;;7.40;4.07;;;15.20;99.90;;;;;;5014747;28;20288;-79
2023/07/27 04:31:07;;;;;;;11.13;3.73;;;15.20;99.90;;;;;;5013365;28;20251;-79
2023/07/27 04:33:33;;;;;;;5.87;4.13;;;15.20;99.90;;;;;;5018728;28;20268;-80
2023/07/27 04:36:02;;;;;;;9.03;4.23;;;15.20;99.90;;;;;;5019706;28;20256;-79
2023/07/27 04:38:29;;;;;;;6.17;4.17;;;15.20;99.90;;;;;;5018398;28;20177;-79
2023/07/27 04:40:54;;;;;;;8.13;4.20;;;15.20;99.90;;;;;;5018436;28;20251;-77
2023/07/27 04:43:20;;;;;;;7.23;4.27;;;15.20;99.90;;;;;;5017305;28;20256;-79
2023/07/27 04:45:47;;;;;;;7.90;4.13;;;15.20;99.90;;;;;;5019153;28;20293;-79
2023/07/27 04:48:12;;;;;;;9.40;4.23;;;15.20;99.90;;;;;;5016906;28;20208;-79
2023/07/27 04:50:38;;;;;;;9.17;4.70;;;15.10;99.90;;;;;;5017731;28;20212;-79
2023/07/27 04:53:03;;;;;;;7.03;4.07;;;15.20;99.90;;;;;;5017715;28;20204;-79
2023/07/27 04:55:29;;;;;;;7.57;4.30;;;15.10;99.90;;;;;;5016066;28;20184;-77
2023/07/27 04:57:54;;;;;;;6.67;4.47;;;15.10;99.90;;;;;;5016307;28;20185;-78
2023/07/27 05:00:20;;;;;;;6.50;4.37;;;15.20;99.90;;;;;;5015698;28;20723;-79
2023/07/27 05:02:46;;;;;;;6.47;4.10;;;15.10;99.90;;;;;;5017212;28;20254;-79
2023/07/27 05:05:11;;;;;;;6.80;4.37;;;15.10;99.90;;;;;;5017070;28;20256;-79
2023/07/27 05:07:37;;;;;;;8.73;4.73;;;15.10;99.90;;;;;;5015439;28;20271;-79
2023/07/27 05:10:03;;;;;;;6.40;4.13;;;15.00;99.90;;;;;;5014637;28;20197;-78
2023/07/27 05:12:28;;;;;;;9.50;4.57;;;15.10;99.90;;;;;;5017182;28;20173;-79
2023/07/27 05:14:54;;;;;;;8.73;4.73;;;15.10;99.90;;;;;;5016403;28;20279;-78
2023/07/27 05:17:20;;;;;;;4.23;3.73;;;15.00;99.90;;;;;;5017314;28;20637;-78
2023/07/27 05:19:45;;;;;;;6.60;4.13;;;15.10;99.90;;;;;;5014545;28;20596;-78
2023/07/27 05:22:11;;;;;;;7.63;4.17;;;15.10;99.90;;;;;;5019581;28;20227;-78
2023/07/27 05:24:38;;;;;;;7.83;4.10;;;15.10;99.90;;;;;;5016946;28;20177;-79
2023/07/27 05:27:03;;;;;;;9.13;4.57;;;15.10;99.90;;;;;;5018131;28;20173;-78
2023/07/27 05:29:29;;;;;;;5.83;3.73;;;15.10;99.90;;;;;;5016060;28;20177;-78
2023/07/27 05:31:55;;;;;;;7.37;3.83;;;15.10;99.90;;;;;;5016219;28;20177;-79
2023/07/27 05:34:20;;;;;;;7.27;4.37;;;15.10;99.90;;;;;;5017109;28;20173;-79
2023/07/27 05:36:46;;;;;;;5.40;3.80;;;15.00;99.90;;;;;;5015136;28;20170;-79
2023/07/27 05:39:12;;;;;;;6.73;3.77;;;15.00;99.90;;;;;;5014743;28;20185;-78
2023/07/27 05:41:37;;;;;;;5.10;3.90;;;15.00;99.90;;;;;;5015808;28;20265;-78
2023/07/27 05:44:03;;;;;;;7.77;4.23;;;15.00;99.90;;;;;;5013549;28;20169;-79
2023/07/27 05:46:28;;;;;;;6.77;3.60;;;15.00;99.90;;;;;;5012866;28;20212;-78
2023/07/27 05:48:54;;;;;;;6.23;3.70;;;15.00;99.90;;;;;;5014632;28;20173;-79
2023/07/27 05:51:20;;;;;;;4.77;3.37;;;15.00;99.90;;;;;;5016283;28;20577;-79
2023/07/27 05:53:45;;;;;;;6.20;3.43;;;15.10;99.90;;;;;;5016731;28;20181;-80
2023/07/27 05:56:11;;;;;;;10.37;3.70;;;15.00;99.90;;;;;;5016466;28;20202;-78
2023/07/27 05:58:36;;;;;;;6.47;3.57;;;15.00;99.90;;;;;;5014947;28;20547;-77
2023/07/27 06:01:03;;;;;;;6.03;2.97;;;15.10;99.90;;;;;;5014193;28;20204;-77
2023/07/27 06:03:29;;;;;;;5.87;3.80;;;15.10;99.90;;;;;;5015032;28;20169;-77
2023/07/27 06:05:55;;;;;;;4.47;3.87;;;15.10;99.90;;;;;;5014561;28;20543;-77
2023/07/27 06:08:21;;;;;;;4.87;3.67;;;15.10;99.90;;;;;;5014447;28;20173;-77
2023/07/27 06:10:46;;;;;;;5.23;3.47;;;15.10;99.90;;;;;;5014470;28;20723;-77
2023/07/27 06:13:12;;;;;;;7.47;4.10;;;15.10;99.90;;;;;;5014828;28;20180;-77
2023/07/27 06:15:38;;;;;;;6.17;3.50;;;15.10;99.90;;;;;;5014839;28;20177;-78
2023/07/27 06:18:04;;;;;;;5.00;3.30;;;15.10;99.90;;;;;;5014951;28;20637;-77
2023/07/27 06:20:29;;;;;;;6.60;3.43;;;15.10;99.90;;;;;;5014804;28;20184;-77
2023/07/27 06:22:55;;;;;;;4.17;3.67;;;15.10;99.90;;;;;;5014624;28;20200;-78
2023/07/27 06:25:21;;;;;;;7.93;3.63;;;15.10;99.90;;;;;;5014118;28;20187;-77
2023/07/27 06:27:47;;;;;;;5.43;3.87;;;15.10;99.90;;;;;;5014102;28;20215;-77
2023/07/27 06:30:15;;;;;;;5.67;3.87;;;15.10;99.90;;;;;;5012438;28;20197;-77
2023/07/27 06:32:40;;;;;;;6.63;4.50;;;15.10;99.90;;;;;;5012607;28;20637;-76
2023/07/27 06:35:06;;;;;;;5.30;3.90;;;15.10;99.90;;;;;;5011554;28;20197;-77
2023/07/27 06:37:32;;;;;;;5.57;4.10;;;15.20;99.90;;;;;;5013557;28;20177;-77
2023/07/27 06:39:57;;;;;;;6.50;3.83;;;15.20;99.90;;;;;;5013406;28;20570;-77
2023/07/27 06:42:23;;;;;;;8.40;4.97;;;15.20;99.90;;;;;;5013409;28;20228;-77
2023/07/27 06:44:48;;;;;;;8.87;4.80;;;15.20;99.90;;;;;;5011464;28;20556;-77
2023/07/27 06:47:14;;;;;;;5.00;4.50;;;15.20;99.90;;;;;;5014319;28;20652;-79
2023/07/27 06:49:39;;;;;;;6.40;4.10;;;15.30;99.90;;;;;;5014061;28;20169;-78
2023/07/27 06:52:08;;;;;;;6.47;4.33;;;15.30;99.90;;;;;;5012811;28;20184;-78
2023/07/27 06:54:35;;;;;;;6.77;5.07;;;15.30;99.90;;;;;;5013734;28;20234;-77
2023/07/27 06:57:01;;;;;;;8.60;4.87;;;15.30;99.90;;;;;;5015123;28;20172;-78
2023/07/27 06:59:26;;;;;;;5.40;4.77;;;15.30;99.90;;;;;;5018426;28;20192;-78
2023/07/27 07:01:54;;;;;;;7.37;4.40;;;15.50;99.90;;;;;;5024476;28;20208;-78
2023/07/27 07:04:19;;;;;;;6.97;4.50;;;15.30;99.90;;;;;;5020194;28;20177;-78
2023/07/27 07:06:45;;;;;;;5.83;4.03;;;15.50;99.90;;;;;;5014670;28;20682;-78
2023/07/27 07:09:10;;;;;;;4.93;3.90;;;15.40;99.90;;;;;;5014375;28;20268;-78
2023/07/27 07:11:36;;;;;;;6.33;3.90;;;15.40;99.90;;;;;;5012619;28;20204;-78
2023/07/27 07:14:01;;;;;;;7.77;3.70;;;15.50;99.90;;;;;;5014301;28;20215;-78
2023/07/27 07:16:27;;;;;;;6.27;3.90;;;15.50;99.90;;;;;;5014277;28;20188;-78
2023/07/27 07:18:53;;;;;;;5.40;4.00;;;15.50;99.90;;;;;;5014250;28;20188;-78
2023/07/27 07:21:19;;;;;;;6.00;3.90;;;15.50;99.90;;;;;;5013604;28;20208;-78
2023/07/27 07:23:44;;;;;;;6.60;4.33;;;15.60;99.90;;;;;;5013929;28;20243;-78
2023/07/27 07:26:10;;;;;;;5.70;4.40;;;15.70;99.90;;;;;;5014073;28;20184;-78
2023/07/27 07:28:35;;;;;;;6.30;4.33;;;15.70;99.90;;;;;;5014029;28;20184;-78
2023/07/27 07:31:01;;;;;;;4.23;3.63;;;15.70;99.90;;;;;;5014514;28;20201;-79
2023/07/27 07:33:26;;;;;;;6.00;4.27;;;15.70;99.90;;;;;;5013196;28;20199;-78
2023/07/27 07:35:52;;;;;;;4.23;3.83;;;15.70;99.90;;;;;;5013713;28;20192;-77
2023/07/27 07:38:17;;;;;;;6.13;3.33;;;15.70;99.90;;;;;;5014370;28;20177;-78
2023/07/27 07:40:46;;;;;;;7.07;3.87;;;15.80;99.90;;;;;;5012818;28;20215;-78
2023/07/27 07:43:11;;;;;;;5.00;4.23;;;15.70;99.90;;;;;;5014051;28;20656;-76
2023/07/27 07:45:37;;;;;;;4.77;4.00;;;15.80;99.90;;;;;;5013972;28;20169;-78
2023/07/27 07:48:03;;;;;;;5.07;3.60;;;15.80;99.90;;;;;;5013356;28;20183;-79
2023/07/27 07:50:29;;;;;;;6.03;3.43;;;15.80;99.90;;;;;;5013836;28;20193;-79
2023/07/27 07:52:54;;;;;;;4.53;3.80;;;15.90;99.90;;;;;;5012275;28;20176;-78
2023/07/27 07:55:20;;;;;;;5.63;3.37;;;15.90;99.90;;;;;;5014175;28;20192;-78
2023/07/27 07:57:46;;;;;;;5.03;3.60;;;15.90;99.90;;;;;;5013540;28;20235;-78
2023/07/27 08:00:11;;;;;;;5.47;3.53;;;15.90;99.90;;;;;;5011827;28;20228;-78
2023/07/27 08:02:38;;;;;;;5.63;3.80;;;16.00;99.90;;;;;;5013736;28;20205;-78
2023/07/27 08:05:04;;;;;;;4.80;3.90;;;16.00;99.90;;;;;;5013480;28;20200;-78
2023/07/27 08:07:30;;;;;;;4.60;3.50;;;16.00;99.90;;;;;;5014403;28;20188;-78
2023/07/27 08:09:56;;;;;;;6.87;3.73;;;16.00;99.90;;;;;;5018973;28;20213;-79
2023/07/27 08:12:22;;;;;;;4.57;2.93;;;16.10;99.90;;;;;;5016701;28;20193;-79
2023/07/27 08:14:47;;;;;;;5.30;2.80;;;16.10;99.90;;;;;;5016774;28;20265;-79
2023/07/27 08:17:13;;;;;;;6.23;3.00;;;16.10;99.90;;;;;;5016292;28;20185;-78
2023/07/27 08:19:38;;;;;;;6.20;2.93;;;16.20;99.90;;;;;;5016034;28;20641;-78
2023/07/27 08:22:05;;;;;;;5.83;2.80;;;16.10;99.90;;;;;;5017538;28;20211;-77
2023/07/27 08:24:31;;;;;;;3.60;2.73;;;16.20;99.90;;;;;;5016746;28;20192;-78
2023/07/27 08:26:56;;;;;;;3.77;2.93;;;16.20;99.90;;;;;;5015783;28;20181;-78
2023/07/27 08:29:22;;;;;;;3.10;2.70;;;16.30;99.90;;;;;;5018015;28;20216;-79
2023/07/27 08:31:47;;;;;;;3.23;2.80;;;16.30;99.90;;;;;;5016959;28;20236;-78
2023/07/27 08:34:13;;;;;;;2.90;2.60;;;16.30;99.90;;;;;;5017357;28;20191;-78
2023/07/27 08:36:38;;;;;;;3.43;2.50;;;16.40;99.90;;;;;;5021700;28;20673;-78
2023/07/27 08:39:04;;;;;;;3.83;2.27;;;16.40;99.90;;;;;;5023584;28;20641;-78
2023/07/27 08:41:30;;;;;;;4.13;2.47;;;16.40;99.90;;;;;;5023063;28;20343;-79
2023/07/27 08:43:57;;;;;;;6.03;2.27;;;16.40;99.90;;;;;;5022268;28;20644;-78
2023/07/27 08:46:23;;;;;;;3.60;2.30;;;16.50;99.90;;;;;;5019876;28;20579;-77
2023/07/27 08:48:49;;;;;;;2.37;1.80;;;16.50;99.90;;;;;;5017296;28;20186;-77
2023/07/27 08:51:15;;;;;;;3.03;1.90;;;16.50;99.90;;;;;;5017932;28;20506;-78
2023/07/27 08:53:40;;;;;;;2.60;1.90;;;16.50;99.90;;;;;;5024434;28;20204;-78
2023/07/27 08:56:06;;;;;;;2.30;2.00;;;16.50;99.90;;;;;;5023176;28;20185;-79
2023/07/27 08:58:32;;;;;;;4.77;2.20;;;16.60;99.90;;;;;;5022379;28;20172;-81
2023/07/27 09:00:57;;;;;;;3.03;1.87;;;16.50;99.90;;;;;;5017950;28;20272;-79
2023/07/27 09:03:23;;;;;;;2.80;2.17;;;16.60;99.90;;;;;;5017031;28;20188;-80
2023/07/27 09:05:57;;;;;;;2.83;1.93;;;16.60;99.90;;;;;;5017208;28;20177;-80
2023/07/27 09:08:26;;;;;;;2.87;2.27;;;16.60;99.90;;;;;;5018511;28;20180;-81
2023/07/27 09:10:51;;;;;;;3.97;2.17;;;16.70;99.90;;;;;;5027460;28;20184;-80
2023/07/27 09:13:17;;;;;;;2.90;2.10;;;16.70;99.90;;;;;;5037620;28;20199;-79
2023/07/27 09:15:45;;;;;;;2.20;2.00;;;16.70;99.90;;;;;;5020709;28;20177;-80
2023/07/27 09:18:12;;;;;;;3.83;2.10;;;16.70;99.90;;;;;;5016120;28;20173;-79
2023/07/27 09:20:42;;;;;;;2.50;2.30;;;16.70;99.90;;;;;;5017941;28;20189;-80
2023/07/27 09:23:08;;;;;;;3.47;1.90;;;16.80;99.90;;;;;;5015092;28;20300;-79
2023/07/27 09:25:33;;;;;;;2.17;1.93;;;16.70;99.90;;;;;;5017601;28;20204;-79
2023/07/27 09:27:59;;;;;;;2.50;2.10;;;16.80;99.90;;;;;;5014953;28;20543;-79
2023/07/27 09:30:25;;;;;;;2.60;1.83;;;16.80;99.90;;;;;;5016916;28;20193;-79
2023/07/27 09:32:52;;;;;;;2.70;2.00;;;16.80;99.90;;;;;;5015178;28;20272;-79
2023/07/27 09:35:19;;;;;;;3.57;1.50;;;16.80;99.90;;;;;;5015105;28;20678;-79
2023/07/27 09:37:50;;;;;;;4.23;2.43;;;16.80;99.90;;;;;;5016518;28;20177;-79
2023/07/27 09:40:19;;;;;;;2.70;2.23;;;16.90;99.90;;;;;;5016572;28;20292;-78
2023/07/27 09:42:45;;;;;;;3.83;2.10;;;16.90;99.90;;;;;;5015442;28;20196;-79
2023/07/27 09:45:12;;;;;;;4.50;2.47;;;16.90;99.90;;;;;;5016531;28;20172;-79
2023/07/27 09:47:38;;;;;;;2.27;2.07;;;17.00;99.90;;;;;;5015663;28;20639;-79
2023/07/27 09:50:04;;;;;;;2.80;2.40;;;17.00;99.90;;;;;;5017341;28;20638;-78
2023/07/27 09:52:30;;;;;;;3.33;1.93;;;17.10;99.90;;;;;;5018403;28;20252;-79
2023/07/27 09:54:58;;;;;;;2.43;2.10;;;17.10;99.90;;;;;;5019164;28;20184;-80
2023/07/27 09:57:25;;;;;;;3.13;2.40;;;17.10;99.90;;;;;;5021144;28;20235;-80
2023/07/27 09:59:51;;;;;;;2.87;2.07;;;17.10;99.90;;;;;;5022709;28;20239;-80
2023/07/27 10:02:17;;;;;;;2.40;2.20;;;17.10;99.90;;;;;;5024724;28;20209;-80
2023/07/27 10:04:45;;;;;;;2.83;2.23;;;17.20;99.90;;;;;;5024239;28;20311;-80
2023/07/27 10:07:11;;;;;;;2.37;1.93;;;17.20;99.90;;;;;;5021906;28;20177;-80
2023/07/27 10:09:36;;;;;;;2.20;2.00;;;17.30;99.90;;;;;;5023183;28;20201;-80
2023/07/27 10:12:04;;;;;;;2.50;2.10;;;17.20;99.90;;;;;;5020257;28;20244;-79
2023/07/27 10:14:31;;;;;;;3.40;2.13;;;17.30;99.90;;;;;;5021265;28;20169;-80
2023/07/27 10:17:07;;;;;;;2.50;2.30;;;17.30;99.90;;;;;;5022798;28;20181;-81
2023/07/27 10:19:42;;;;;;;3.33;2.20;;;17.30;99.90;;;;;;5023583;28;20246;-79
2023/07/27 10:22:12;;;;;;;2.83;2.13;;;17.40;99.90;;;;;;5023078;28;20262;-80
2023/07/27 10:24:56;;;;;;;4.27;2.43;;;17.40;99.90;;;;;;5023843;28;20615;-80
2023/07/27 10:27:22;;;;;;;3.53;2.70;;;17.50;99.90;;;;;;5025084;28;20219;-80
2023/07/27 10:29:51;;;;;;;3.20;2.90;;;17.50;99.90;;;;;;5024911;28;20192;-79
2023/07/27 10:32:17;;;;;;;3.00;2.67;;;17.50;99.90;;;;;;5027522;28;20284;-78
2023/07/27 10:34:42;;;;;;;5.43;2.70;;;17.50;99.90;;;;;;5025345;28;20219;-79
2023/07/27 10:37:13;;;;;;;6.83;2.97;;;17.50;99.90;;;;;;5024579;28;20666;-80
2023/07/27 10:39:46;;;;;;;3.17;2.87;;;17.50;99.90;;;;;;5025024;28;20207;-80
2023/07/27 10:42:20;;;;;;;4.00;3.07;;;17.60;99.90;;;;;;5026534;28;20617;-79
2023/07/27 10:44:52;;;;;;;3.70;3.40;;;17.60;99.90;;;;;;5024136;28;20260;-79
2023/07/27 10:47:38;;;;;;;4.13;3.63;;;17.60;99.90;;;;;;5026255;28;20657;-80
2023/07/27 10:50:05;;;;;;;4.50;3.03;;;17.60;99.90;;;;;;5026564;28;20690;-80
2023/07/27 10:52:39;;;;;;;5.30;3.67;;;17.60;99.90;;;;;;5024953;28;20300;-81
2023/07/27 10:55:06;;;;;;;4.17;3.23;;;17.50;99.90;;;;;;5026432;28;20163;-80
2023/07/27 10:57:34;;;;;;;7.17;3.50;;;17.60;99.90;;;;;;5025246;28;20181;-80
2023/07/27 11:00:00;;;;;;;5.40;3.60;;;17.70;99.90;;;;;;5024720;28;20228;-80
2023/07/27 11:02:32;;;;;;;3.87;3.20;;;17.60;99.90;;;;;;5025376;28;20605;-80
2023/07/27 11:05:00;;;;;;;3.60;3.30;;;17.80;99.90;;;;;;5025933;28;20165;-80
2023/07/27 11:07:32;;;;;;;4.73;3.87;;;18.00;99.90;;;;;;5024984;28;20185;-80
2023/07/27 11:09:59;;;;;;;4.30;3.40;;;18.00;99.90;;;;;;5020999;28;20194;-79
2023/07/27 11:12:24;;;;;;;3.47;2.93;;;18.00;99.90;;;;;;5022406;28;20215;-80
2023/07/27 11:14:51;;;;;;;3.63;2.83;;;18.10;99.90;;;;;;5025000;28;20173;-80
2023/07/27 11:17:18;;;;;;;3.20;2.90;;;18.10;99.90;;;;;;5025215;28;20173;-81
2023/07/27 11:19:44;;;;;;;2.73;2.40;;;18.10;99.90;;;;;;5024301;28;20192;-80
2023/07/27 11:22:10;;;;;;;4.47;2.50;;;18.10;99.90;;;;;;5032903;28;20276;-80
2023/07/27 11:24:35;;;;;;;3.87;2.47;;;18.10;99.90;;;;;;5025740;28;20180;-79
2023/07/27 11:27:01;;;;;;;3.30;2.30;;;18.10;99.90;;;;;;5021539;28;20199;-80
2023/07/27 11:29:27;;;;;;;4.77;2.00;;;18.10;99.90;;;;;;5023353;28;20263;-80
2023/07/27 11:31:58;;;;;;;2.43;1.90;;;18.10;99.90;;;;;;5021529;28;20180;-79
2023/07/27 11:34:26;;;;;;;2.33;2.03;;;18.10;99.90;;;;;;5014335;28;20185;-79
2023/07/27 11:36:53;;;;;;;5.53;2.13;;;18.10;99.90;;;;;;5013961;28;20185;-79
2023/07/27 11:39:19;;;;;;;2.73;2.03;;;18.10;99.90;;;;;;5015151;28;20177;-79
2023/07/27 11:41:46;;;;;;;2.00;1.80;;;18.10;99.90;;;;;;5016660;28;20270;-79
2023/07/27 11:44:12;;;;;;;3.63;2.10;;;18.20;99.90;;;;;;5018884;28;20172;-79
2023/07/27 11:46:47;;;;;;;2.30;2.10;;;18.20;99.90;;;;;;5019915;28;20231;-79
2023/07/27 11:49:14;;;;;;;2.13;1.47;;;18.20;99.90;;;;;;5019790;28;20639;-79
2023/07/27 11:51:40;;;;;;;2.40;1.90;;;18.10;99.90;;;;;;5017746;28;20558;-79
2023/07/27 11:54:07;;;;;;;1.90;1.43;;;18.20;99.90;;;;;;5019353;28;20173;-79
2023/07/27 11:56:34;;;;;;;2.63;1.63;;;18.10;99.90;;;;;;5019710;28;20184;-79
2023/07/27 11:58:59;;;;;;;1.50;1.40;;;18.20;99.90;;;;;;5019349;28;20188;-79
2023/07/27 12:01:25;;;;;;;3.00;1.90;;;18.30;99.90;;;;;;5018488;28;20216;-79
2023/07/27 12:03:50;;;;;;;3.40;2.03;;;18.30;99.90;;;;;;5018226;28;20248;-79
2023/07/27 12:06:21;;;;;;;5.03;2.20;;;18.40;99.90;;;;;;5016567;28;20181;-79
2023/07/27 12:08:47;;;;;;;2.10;1.70;;;18.50;99.90;;;;;;5017139;28;20195;-79
2023/07/27 12:11:13;;;;;;;1.33;0.90;;;18.50;99.90;;;;;;5016802;28;20292;-79
2023/07/27 12:13:38;;;;;;;1.43;0.90;;;18.50;99.90;;;;;;5018638;28;20169;-79
2023/07/27 12:16:07;;;;;;;1.97;0.87;;;18.60;99.90;;;;;;5018999;28;20181;-79
2023/07/27 12:18:32;;;;;;;1.87;0.90;;;18.60;99.90;;;;;;5018345;28;20173;-79
2023/07/27 12:20:58;;;;;;;1.00;0.87;;;18.70;99.90;;;;;;5017987;28;20698;-79
2023/07/27 12:23:25;;;;;;;0.60;0.60;;;18.60;99.90;;;;;;5018233;28;20260;-79
2023/07/27 12:25:54;;;;;;;0.60;0.60;;;18.60;99.90;;;;;;5015260;28;20177;-79
2023/07/27 12:28:19;;;;;;;1.10;0.90;;;18.50;99.90;;;;;;5018176;28;20577;-78
2023/07/27 12:30:45;;;;;;;2.10;0.80;;;18.50;99.90;;;;;;5017467;28;20197;-78
2023/07/27 12:33:11;;;;;;;1.30;0.90;;;18.50;99.90;;;;;;5016762;28;20264;-79
2023/07/27 12:35:38;;;;;;;1.10;0.90;;;18.50;99.90;;;;;;5015800;28;20254;-79
2023/07/27 12:38:03;;;;;;;2.40;1.10;;;18.50;99.90;;;;;;5017514;28;20303;-79
2023/07/27 12:40:29;;;;;;;2.10;1.00;;;18.50;99.90;;;;;;5015320;28;20673;-79
2023/07/27 12:42:55;;;;;;;1.93;1.20;;;18.50;99.90;;;;;;5017422;28;20579;-79
2023/07/27 12:45:20;;;;;;;2.93;1.40;;;18.50;99.90;;;;;;5014407;28;20189;-79